Time;durP1;ratioP1;P1;durP2;ratioP2;P2;SDS_P1;SDS_P2;PMS_P1;PMS_P2;Temp;Humidity;BMP_temperature;BMP_pressure;BME280_temperature;BME280_humidity;BME280_pressure;Samples;Min_cycle;Max_cycle;Signal;HPM_P1;HPM_P2
2021/04/20 00:00:21;;;;;;;77.80;46.70;;;7.00;99.90;;;;;;4991860;28;20387;-75
2021/04/20 00:02:47;;;;;;;82.90;46.13;;;7.10;99.90;;;;;;4991436;28;20401;-74
2021/04/20 00:05:16;;;;;;;80.13;46.50;;;7.00;99.90;;;;;;4991864;28;20755;-76
2021/04/20 00:07:42;;;;;;;76.25;43.47;;;7.00;99.90;;;;;;4991475;28;20379;-76
2021/04/20 00:10:14;;;;;;;70.13;42.43;;;7.00;99.90;;;;;;4991941;28;20402;-76
2021/04/20 00:12:40;;;;;;;69.80;42.33;;;7.00;99.90;;;;;;4991211;28;20379;-75
2021/04/20 00:15:11;;;;;;;72.50;39.75;;;7.00;99.90;;;;;;4991182;28;20461;-75
2021/04/20 00:17:37;;;;;;;67.20;38.13;;;7.00;99.90;;;;;;4991073;28;20467;-76
2021/04/20 00:20:06;;;;;;;65.78;39.47;;;7.10;99.90;;;;;;4991585;28;20445;-76
2021/04/20 00:22:32;;;;;;;68.90;39.78;;;7.00;99.90;;;;;;4991404;28;20383;-77
2021/04/20 00:24:57;;;;;;;70.03;42.10;;;7.00;99.90;;;;;;4991245;28;20414;-75
2021/04/20 00:27:23;;;;;;;64.60;38.67;;;7.00;99.90;;;;;;4991479;28;20397;-76
2021/04/20 00:29:49;;;;;;;70.43;38.87;;;6.90;99.90;;;;;;4991371;28;20398;-75
2021/04/20 00:32:14;;;;;;;70.37;39.73;;;6.90;99.90;;;;;;4990055;28;20386;-75
2021/04/20 00:34:40;;;;;;;68.83;39.00;;;6.80;99.90;;;;;;4989746;28;20390;-74
2021/04/20 00:37:05;;;;;;;59.00;37.27;;;6.80;99.90;;;;;;4991336;28;20473;-75
2021/04/20 00:39:31;;;;;;;58.60;36.30;;;6.90;99.90;;;;;;4991141;28;20393;-76
2021/04/20 00:42:07;;;;;;;56.73;35.73;;;7.10;99.90;;;;;;4989691;28;20501;-74
2021/04/20 00:44:33;;;;;;;58.90;35.95;;;7.10;99.90;;;;;;4991158;28;20417;-76
2021/04/20 00:47:00;;;;;;;57.63;35.57;;;7.00;99.90;;;;;;4990931;28;20887;-75
2021/04/20 00:49:26;;;;;;;61.72;35.50;;;6.90;99.90;;;;;;4994211;28;20418;-75
2021/04/20 00:51:52;;;;;;;60.53;36.53;;;6.80;99.90;;;;;;4994887;28;20394;-75
2021/04/20 00:54:19;;;;;;;55.97;34.40;;;6.70;99.90;;;;;;4994671;28;20477;-75
2021/04/20 00:56:45;;;;;;;61.00;36.75;;;6.60;99.90;;;;;;4994626;28;20397;-75
2021/04/20 00:59:11;;;;;;;59.40;35.97;;;6.50;99.90;;;;;;4993459;28;20414;-76
2021/04/20 01:01:38;;;;;;;60.92;36.30;;;6.50;99.90;;;;;;4994649;28;20517;-73
2021/04/20 01:04:04;;;;;;;54.55;34.53;;;6.50;99.90;;;;;;4994121;28;20477;-74
2021/04/20 01:06:30;;;;;;;57.63;33.53;;;6.40;99.90;;;;;;4993274;28;20387;-74
2021/04/20 01:08:57;;;;;;;54.22;34.10;;;6.40;99.90;;;;;;4994341;28;20517;-75
2021/04/20 01:11:23;;;;;;;56.95;34.08;;;6.40;99.90;;;;;;4994934;28;20855;-74
2021/04/20 01:13:49;;;;;;;54.95;33.35;;;6.40;99.90;;;;;;4994220;28;20394;-74
2021/04/20 01:16:18;;;;;;;53.13;31.98;;;6.40;99.90;;;;;;4994480;28;20386;-74
2021/04/20 01:18:45;;;;;;;51.30;31.93;;;6.40;99.90;;;;;;4994333;28;20437;-75
2021/04/20 01:21:13;;;;;;;51.13;31.23;;;6.50;99.90;;;;;;4993286;28;20927;-75
2021/04/20 01:23:50;;;;;;;58.15;33.33;;;6.50;99.90;;;;;;4994628;28;20407;-74
2021/04/20 01:26:18;;;;;;;53.45;32.58;;;6.40;99.90;;;;;;4994620;28;20391;-75
2021/04/20 01:28:44;;;;;;;54.58;32.55;;;6.40;99.90;;;;;;4993973;28;20601;-75
2021/04/20 01:31:18;;;;;;;53.58;31.50;;;6.30;99.90;;;;;;4994561;28;20414;-75
2021/04/20 01:33:44;;;;;;;48.80;32.35;;;6.60;99.90;;;;;;4994213;28;20458;-75
2021/04/20 01:36:12;;;;;;;49.22;30.45;;;6.60;99.90;;;;;;4994255;28;20414;-75
2021/04/20 01:38:41;;;;;;;53.05;31.15;;;6.60;99.90;;;;;;4994225;28;20391;-75
2021/04/20 01:41:06;;;;;;;48.70;29.67;;;6.60;99.90;;;;;;4994102;28;20447;-75
2021/04/20 01:43:33;;;;;;;46.80;30.20;;;6.40;99.90;;;;;;4993755;28;20442;-74
2021/04/20 01:45:58;;;;;;;49.60;31.25;;;6.40;99.90;;;;;;4994021;28;20387;-74
2021/04/20 01:48:24;;;;;;;47.50;28.87;;;6.30;99.90;;;;;;4993961;28;20724;-74
2021/04/20 01:50:49;;;;;;;44.00;28.47;;;6.40;99.90;;;;;;4993911;28;20859;-73
2021/04/20 01:53:15;;;;;;;47.00;28.50;;;6.70;99.90;;;;;;4994301;28;20875;-74
2021/04/20 01:55:41;;;;;;;46.67;27.77;;;6.60;99.90;;;;;;4993828;28;20390;-74
2021/04/20 01:58:07;;;;;;;44.35;28.83;;;6.30;99.90;;;;;;4994213;28;20417;-74
2021/04/20 02:00:36;;;;;;;46.00;28.10;;;6.30;99.90;;;;;;4993200;28;20391;-75
2021/04/20 02:03:03;;;;;;;46.33;27.92;;;6.30;99.90;;;;;;4994129;28;20441;-74
2021/04/20 02:05:29;;;;;;;44.47;27.95;;;6.20;99.90;;;;;;4997454;28;20415;-75
2021/04/20 02:07:55;;;;;;;46.60;28.00;;;6.20;99.90;;;;;;4997769;28;20457;-74
2021/04/20 02:10:21;;;;;;;46.55;29.13;;;6.10;99.90;;;;;;4994248;28;20387;-74
2021/04/20 02:12:46;;;;;;;38.95;25.77;;;6.10;99.90;;;;;;4993702;28;20401;-75
2021/04/20 02:15:14;;;;;;;42.67;26.77;;;6.10;99.90;;;;;;4993710;28;20790;-74
2021/04/20 02:17:43;;;;;;;43.17;25.83;;;6.10;99.90;;;;;;4993712;28;20753;-75
2021/04/20 02:20:11;;;;;;;44.05;27.50;;;6.00;99.90;;;;;;4993073;28;20402;-75
2021/04/20 02:22:38;;;;;;;44.25;26.50;;;5.90;99.90;;;;;;4995138;28;20391;-75
2021/04/20 02:25:09;;;;;;;43.08;25.45;;;5.90;99.90;;;;;;4995032;28;20414;-75
2021/04/20 02:27:35;;;;;;;40.75;25.45;;;5.90;99.90;;;;;;4993883;28;20439;-75
2021/04/20 02:30:03;;;;;;;41.40;25.73;;;5.80;99.90;;;;;;4999992;28;20382;-74
2021/04/20 02:32:29;;;;;;;39.58;25.00;;;5.80;99.90;;;;;;5001253;28;20390;-75
2021/04/20 02:34:58;;;;;;;41.95;25.85;;;5.70;99.90;;;;;;5001932;28;20812;-74
2021/04/20 02:37:24;;;;;;;45.37;26.87;;;5.70;99.90;;;;;;5001012;28;20387;-75
2021/04/20 02:39:49;;;;;;;43.15;25.42;;;5.60;99.90;;;;;;5001113;28;20570;-74
2021/04/20 02:42:15;;;;;;;41.95;26.35;;;5.50;99.90;;;;;;4999396;28;20457;-75
2021/04/20 02:44:41;;;;;;;44.65;26.88;;;5.50;99.90;;;;;;5001368;28;20406;-74
2021/04/20 02:47:06;;;;;;;42.83;25.80;;;5.60;99.90;;;;;;5000704;28;20473;-74
2021/04/20 02:49:34;;;;;;;47.60;27.30;;;5.50;99.90;;;;;;4996835;28;20385;-73
2021/04/20 02:52:00;;;;;;;40.92;25.58;;;5.50;99.90;;;;;;4993911;28;20398;-77
2021/04/20 02:54:26;;;;;;;41.10;25.05;;;5.40;99.90;;;;;;4997756;28;20386;-75
2021/04/20 02:56:53;;;;;;;46.40;27.15;;;5.50;99.90;;;;;;4996303;28;20394;-75
2021/04/20 02:59:20;;;;;;;43.80;27.15;;;5.60;99.90;;;;;;4993842;28;20805;-75
2021/04/20 03:01:45;;;;;;;44.53;26.58;;;5.80;99.90;;;;;;4992024;28;20819;-76
2021/04/20 03:04:16;;;;;;;39.57;25.10;;;5.70;99.90;;;;;;4993584;28;20406;-75
2021/04/20 03:06:42;;;;;;;41.30;26.30;;;5.70;99.90;;;;;;4994194;28;20504;-75
2021/04/20 03:09:10;;;;;;;39.28;25.83;;;5.80;99.90;;;;;;4994360;28;20401;-75
2021/04/20 03:11:51;;;;;;;44.00;26.58;;;5.80;99.90;;;;;;4996183;28;20383;-75
2021/04/20 03:14:18;;;;;;;42.55;26.60;;;5.80;99.90;;;;;;4978791;28;20393;-76
2021/04/20 03:16:44;;;;;;;44.80;26.38;;;5.60;99.90;;;;;;4989447;28;20396;-75
2021/04/20 03:19:09;;;;;;;42.63;25.77;;;5.50;99.90;;;;;;4993777;28;20397;-75
2021/04/20 03:21:37;;;;;;;41.70;26.40;;;5.60;99.90;;;;;;4993849;28;20387;-75
2021/04/20 03:24:03;;;;;;;42.70;25.67;;;5.50;99.90;;;;;;4993125;28;20403;-76
2021/04/20 03:26:34;;;;;;;43.30;27.13;;;5.50;99.90;;;;;;4994562;28;20382;-76
2021/04/20 03:29:02;;;;;;;40.88;25.08;;;5.60;99.90;;;;;;4980693;28;20389;-75
2021/04/20 03:31:29;;;;;;;43.10;25.80;;;5.60;99.90;;;;;;4982164;28;20388;-76
2021/04/20 03:34:15;;;;;;;38.35;25.23;;;5.60;99.90;;;;;;4995253;28;20402;-75
2021/04/20 03:36:48;;;;;;;40.85;26.13;;;5.50;99.90;;;;;;4994225;28;20385;-76
2021/04/20 03:39:18;;;;;;;41.50;25.87;;;5.30;99.90;;;;;;4992405;28;20379;-76
2021/04/20 03:42:03;;;;;;;41.35;25.65;;;5.30;99.90;;;;;;4993638;28;20422;-75
2021/04/20 03:44:37;;;;;;;41.90;24.90;;;5.30;99.90;;;;;;4997006;28;20805;-75
2021/04/20 03:47:08;;;;;;;41.80;26.00;;;5.50;99.90;;;;;;4994392;28;20742;-74
2021/04/20 03:49:38;;;;;;;41.00;26.20;;;5.50;99.90;;;;;;4999896;28;20755;-76
2021/04/20 03:52:09;;;;;;;37.43;23.63;;;5.40;99.90;;;;;;4999322;28;20503;-74
2021/04/20 03:54:36;;;;;;;40.30;24.65;;;5.30;99.90;;;;;;4995896;28;20395;-75
2021/04/20 03:57:02;;;;;;;41.40;26.52;;;5.30;99.90;;;;;;4993334;28;20568;-75
2021/04/20 03:59:29;;;;;;;42.40;26.13;;;5.30;99.90;;;;;;4993198;28;20946;-74
2021/04/20 04:01:57;;;;;;;45.47;27.48;;;5.20;99.90;;;;;;4994641;28;20867;-75
2021/04/20 04:04:25;;;;;;;43.47;24.63;;;5.10;99.90;;;;;;4994789;28;20412;-75
2021/04/20 04:06:52;;;;;;;39.30;25.25;;;5.10;99.90;;;;;;5001406;28;20413;-75
2021/04/20 04:09:19;;;;;;;39.75;25.02;;;5.10;99.90;;;;;;5001312;28;20454;-75
2021/04/20 04:12:03;;;;;;;41.85;25.17;;;5.10;99.90;;;;;;4997332;28;20470;-75
2021/04/20 04:14:31;;;;;;;39.17;25.20;;;5.20;99.90;;;;;;4992500;28;20432;-74
2021/04/20 04:17:01;;;;;;;40.85;26.67;;;5.10;99.90;;;;;;4990849;28;20481;-74
2021/04/20 04:19:38;;;;;;;44.07;26.00;;;5.30;99.90;;;;;;4991251;28;20390;-74
2021/04/20 04:22:14;;;;;;;40.28;24.77;;;5.20;99.90;;;;;;4989896;28;20395;-75
2021/04/20 04:24:55;;;;;;;39.03;24.80;;;5.10;99.90;;;;;;4993286;28;20468;-75
2021/04/20 04:27:23;;;;;;;40.55;24.98;;;5.10;99.90;;;;;;4993683;28;20394;-75
2021/04/20 04:29:51;;;;;;;40.08;23.85;;;5.10;99.90;;;;;;4995317;28;20381;-75
2021/04/20 04:32:18;;;;;;;38.47;24.77;;;5.10;99.90;;;;;;4995063;28;20437;-75
2021/04/20 04:34:46;;;;;;;38.35;23.48;;;5.10;99.90;;;;;;4993572;28;20430;-76
2021/04/20 04:37:14;;;;;;;39.97;23.45;;;5.20;99.90;;;;;;4994790;28;20390;-76
2021/04/20 04:39:42;;;;;;;36.92;23.73;;;5.20;99.90;;;;;;4994875;28;20704;-75
2021/04/20 04:42:07;;;;;;;36.75;23.80;;;5.20;99.90;;;;;;4994974;28;20482;-76
2021/04/20 04:44:33;;;;;;;42.37;25.80;;;5.10;99.90;;;;;;4994839;28;20497;-76
2021/04/20 04:46:59;;;;;;;42.13;25.42;;;5.10;99.90;;;;;;4994963;28;20460;-76
2021/04/20 04:49:25;;;;;;;36.17;23.90;;;5.00;99.90;;;;;;4995238;28;20397;-76
2021/04/20 04:51:52;;;;;;;42.47;24.63;;;5.10;99.90;;;;;;4995326;28;20422;-80
2021/04/20 04:54:19;;;;;;;37.20;22.57;;;5.10;99.90;;;;;;4997070;28;20430;-76
2021/04/20 04:56:45;;;;;;;38.13;24.23;;;5.10;99.90;;;;;;4994570;28;20430;-75
2021/04/20 04:59:14;;;;;;;41.45;25.35;;;5.10;99.90;;;;;;4993458;28;20492;-76
2021/04/20 05:01:41;;;;;;;38.40;23.48;;;5.30;99.90;;;;;;4994267;28;20744;-75
2021/04/20 05:04:09;;;;;;;39.65;25.67;;;5.30;99.90;;;;;;4994125;28;20521;-75
2021/04/20 05:06:48;;;;;;;42.63;25.30;;;5.30;99.90;;;;;;4994027;28;20878;-76
2021/04/20 05:09:22;;;;;;;37.22;23.73;;;5.40;99.90;;;;;;4994227;28;20537;-75
2021/04/20 05:11:49;;;;;;;33.70;22.65;;;5.50;99.90;;;;;;4994653;28;20382;-75
2021/04/20 05:14:21;;;;;;;40.22;25.40;;;5.50;99.90;;;;;;4994093;28;20420;-75
2021/04/20 05:16:48;;;;;;;41.80;24.58;;;5.50;99.90;;;;;;4992638;28;20442;-74
2021/04/20 05:19:19;;;;;;;41.92;25.17;;;5.50;99.90;;;;;;4994134;28;20681;-75
2021/04/20 05:21:48;;;;;;;39.42;23.60;;;5.50;99.90;;;;;;4994550;28;20409;-76
2021/04/20 05:24:13;;;;;;;39.13;24.17;;;5.70;99.90;;;;;;4994176;28;20513;-76
2021/04/20 05:26:39;;;;;;;40.00;24.77;;;5.70;99.90;;;;;;4995141;28;20898;-76
2021/04/20 05:29:05;;;;;;;38.60;23.95;;;5.90;99.90;;;;;;4995379;28;20850;-75
2021/04/20 05:31:31;;;;;;;35.05;23.30;;;6.00;99.90;;;;;;4994529;28;20391;-76
2021/04/20 05:33:58;;;;;;;35.92;23.77;;;6.10;99.90;;;;;;4993615;28;20394;-76
2021/04/20 05:36:24;;;;;;;38.80;23.52;;;6.20;99.80;;;;;;4993517;28;20919;-76
2021/04/20 05:38:55;;;;;;;38.33;23.37;;;6.30;99.00;;;;;;4996642;28;20434;-77
2021/04/20 05:41:29;;;;;;;39.35;24.65;;;6.40;98.60;;;;;;4995232;28;20400;-76
2021/04/20 05:43:55;;;;;;;36.30;22.73;;;6.50;98.00;;;;;;4993835;28;20445;-76
2021/04/20 05:46:22;;;;;;;36.63;23.55;;;6.60;93.90;;;;;;4993780;28;20398;-75
2021/04/20 05:48:48;;;;;;;39.35;23.15;;;6.80;93.70;;;;;;4993887;28;20478;-76
2021/04/20 05:51:16;;;;;;;37.70;23.07;;;6.90;90.20;;;;;;4993114;28;20381;-75
2021/04/20 05:53:42;;;;;;;36.22;22.67;;;7.10;88.20;;;;;;4993359;28;20421;-75
2021/04/20 05:56:08;;;;;;;38.03;23.88;;;7.20;87.50;;;;;;4993561;28;20394;-76
2021/04/20 05:58:34;;;;;;;36.67;23.27;;;7.40;85.20;;;;;;4995443;28;20760;-76
2021/04/20 06:01:04;;;;;;;36.20;22.83;;;7.80;81.60;;;;;;4995340;28;20398;-76
2021/04/20 06:03:33;;;;;;;38.42;23.00;;;7.90;77.10;;;;;;4993731;28;20513;-75
2021/04/20 06:06:01;;;;;;;37.40;23.25;;;8.00;74.40;;;;;;4994561;28;20382;-76
2021/04/20 06:08:27;;;;;;;35.97;22.90;;;8.00;75.10;;;;;;4994104;28;20390;-75
2021/04/20 06:10:53;;;;;;;33.53;22.95;;;8.10;75.50;;;;;;4993025;28;20398;-76
2021/04/20 06:13:18;;;;;;;42.42;24.42;;;8.10;74.80;;;;;;4978968;28;20706;-76
2021/04/20 06:15:45;;;;;;;36.55;22.13;;;8.20;74.30;;;;;;4973631;28;20408;-76
2021/04/20 06:18:11;;;;;;;34.30;23.30;;;8.60;70.30;;;;;;4985678;28;20481;-76
2021/04/20 06:20:37;;;;;;;32.92;22.20;;;8.90;66.00;;;;;;4993707;28;20509;-76
2021/04/20 06:23:04;;;;;;;42.40;26.38;;;8.70;66.90;;;;;;4992861;28;20394;-76
2021/04/20 06:25:31;;;;;;;36.25;23.48;;;8.70;66.60;;;;;;4993474;28;20378;-76
2021/04/20 06:27:57;;;;;;;39.88;24.60;;;8.70;66.80;;;;;;4983357;28;20396;-76
2021/04/20 06:30:23;;;;;;;42.90;25.70;;;8.90;66.40;;;;;;4975594;28;20399;-77
2021/04/20 06:32:50;;;;;;;40.80;25.25;;;8.90;66.70;;;;;;4978453;28;20918;-77
2021/04/20 06:35:19;;;;;;;35.70;24.40;;;8.90;68.00;;;;;;5009461;28;20390;-76
2021/04/20 06:37:47;;;;;;;42.58;26.38;;;9.10;65.70;;;;;;4993924;28;20871;-76
2021/04/20 06:40:20;;;;;;;40.05;26.48;;;9.10;64.80;;;;;;4994035;28;20809;-77
2021/04/20 06:42:55;;;;;;;42.03;24.85;;;9.30;65.90;;;;;;4993241;28;20386;-77
2021/04/20 06:45:41;;;;;;;40.65;24.02;;;9.30;63.60;;;;;;4993756;28;20619;-78
2021/04/20 06:48:36;;;;;;;36.28;24.50;;;9.30;62.20;;;;;;4993365;28;20394;-76
2021/04/20 06:51:06;;;;;;;38.78;24.75;;;9.40;63.00;;;;;;4984962;28;20390;-76
2021/04/20 06:53:46;;;;;;;40.28;25.60;;;9.60;61.80;;;;;;4992582;28;20393;-77
2021/04/20 06:56:25;;;;;;;44.58;24.40;;;9.90;57.70;;;;;;4991865;28;20441;-76
2021/04/20 06:58:54;;;;;;;36.55;24.67;;;9.90;54.90;;;;;;4992082;28;20858;-76
2021/04/20 07:01:28;;;;;;;37.95;25.42;;;9.90;54.30;;;;;;4991899;28;20407;-76
2021/04/20 07:04:12;;;;;;;36.17;24.20;;;9.90;54.70;;;;;;4991797;28;20465;-75
2021/04/20 07:06:54;;;;;;;36.95;25.15;;;10.00;54.50;;;;;;4992672;28;20740;-75
2021/04/20 07:09:26;;;;;;;38.03;25.20;;;10.20;54.50;;;;;;4993208;28;20410;-79
2021/04/20 07:11:54;;;;;;;42.97;24.40;;;10.30;54.00;;;;;;4991709;28;20407;-72
2021/04/20 07:14:48;;;;;;;36.33;23.85;;;10.40;53.00;;;;;;4991784;28;20469;-72
2021/04/20 07:17:33;;;;;;;35.85;24.13;;;10.70;49.30;;;;;;4987622;28;20399;-73
2021/04/20 07:20:19;;;;;;;36.55;24.65;;;10.80;49.00;;;;;;4991556;28;20397;-73
2021/04/20 07:23:22;;;;;;;37.10;22.83;;;10.80;46.90;;;;;;4991466;28;20389;-72
2021/04/20 07:25:57;;;;;;;36.25;21.55;;;10.90;41.50;;;;;;4991380;28;20394;-73
2021/04/20 07:28:35;;;;;;;32.70;22.40;;;10.80;41.30;;;;;;4990789;28;20807;-73
2021/04/20 07:31:20;;;;;;;34.30;22.80;;;11.00;41.10;;;;;;4991477;28;20386;-72
2021/04/20 07:34:16;;;;;;;34.85;22.60;;;11.10;41.40;;;;;;4991699;28;20393;-74
2021/04/20 07:37:36;;;;;;;38.20;25.10;;;11.40;39.70;;;;;;4991706;28;20474;-73
2021/04/20 07:40:13;;;;;;;38.50;24.93;;;11.60;39.30;;;;;;4971910;28;20400;-76
2021/04/20 07:43:13;;;;;;;39.88;26.10;;;11.70;38.40;;;;;;4987934;28;20402;-76
2021/04/20 07:45:41;;;;;;;41.58;27.20;;;11.80;39.50;;;;;;4992746;28;20418;-75
2021/04/20 07:48:19;;;;;;;40.45;27.15;;;11.70;37.90;;;;;;4990691;28;20398;-76
2021/04/20 07:50:48;;;;;;;41.35;27.02;;;11.70;38.50;;;;;;4992984;28;20481;-76
2021/04/20 07:53:29;;;;;;;42.80;26.67;;;11.80;39.40;;;;;;4991227;28;20398;-75
2021/04/20 07:56:11;;;;;;;39.08;26.95;;;11.80;37.90;;;;;;4989909;28;20398;-75
2021/04/20 07:58:50;;;;;;;38.78;27.48;;;12.00;38.20;;;;;;4969480;28;20439;-75
2021/04/20 08:01:37;;;;;;;40.22;26.05;;;12.30;38.20;;;;;;4973715;28;20530;-76
2021/04/20 08:04:11;;;;;;;40.90;26.42;;;12.70;37.40;;;;;;4990752;28;20902;-76
2021/04/20 08:06:38;;;;;;;42.47;28.05;;;12.60;36.20;;;;;;4971790;28;20442;-75
2021/04/20 08:09:12;;;;;;;40.83;28.63;;;12.60;36.50;;;;;;4987898;28;20851;-75
2021/04/20 08:11:45;;;;;;;41.10;28.10;;;12.70;35.20;;;;;;4991424;28;20477;-77
2021/04/20 08:14:15;;;;;;;44.92;28.08;;;13.00;33.30;;;;;;4991318;28;20737;-75
2021/04/20 08:16:53;;;;;;;41.40;28.00;;;13.10;33.40;;;;;;4990634;28;20449;-77
2021/04/20 08:19:41;;;;;;;37.97;26.67;;;13.00;33.90;;;;;;4990756;28;20402;-76
2021/04/20 08:22:08;;;;;;;39.00;26.85;;;13.20;35.30;;;;;;4983861;28;20398;-76
2021/04/20 08:24:40;;;;;;;41.72;26.65;;;13.50;32.40;;;;;;4991055;28;20445;-76
2021/04/20 08:27:39;;;;;;;39.70;27.00;;;13.70;31.30;;;;;;4990739;28;20888;-76
2021/04/20 08:30:32;;;;;;;45.00;27.50;;;13.60;30.90;;;;;;4991007;28;20390;-75
2021/04/20 08:33:01;;;;;;;38.88;26.85;;;13.60;30.80;;;;;;4990900;28;20378;-76
2021/04/20 08:35:29;;;;;;;42.45;27.40;;;13.80;29.70;;;;;;4991002;28;20686;-76
2021/04/20 08:38:13;;;;;;;40.37;27.10;;;13.80;28.90;;;;;;4991168;28;20419;-76
2021/04/20 08:40:46;;;;;;;38.25;26.25;;;13.50;29.60;;;;;;4990503;28;20875;-75
2021/04/20 08:43:20;;;;;;;39.38;25.65;;;13.70;29.60;;;;;;5005355;28;20529;-76
2021/04/20 08:46:25;;;;;;;36.88;26.02;;;14.00;28.30;;;;;;4990433;28;20876;-75
2021/04/20 08:49:13;;;;;;;42.03;27.88;;;14.00;28.40;;;;;;4987079;28;20406;-76
2021/04/20 08:51:59;;;;;;;36.77;25.50;;;13.90;28.20;;;;;;4992086;28;20417;-76
2021/04/20 08:54:50;;;;;;;38.40;26.60;;;13.80;28.50;;;;;;4993372;28;20477;-76
2021/04/20 08:57:25;;;;;;;39.08;26.70;;;13.80;28.90;;;;;;4993481;28;20756;-77
2021/04/20 09:00:18;;;;;;;36.08;25.58;;;13.80;28.20;;;;;;4992870;28;20715;-76
2021/04/20 09:03:16;;;;;;;41.88;25.10;;;13.80;28.30;;;;;;4993303;28;20409;-76
2021/04/20 09:05:55;;;;;;;40.75;26.10;;;14.20;27.10;;;;;;4994917;28;20406;-76
2021/04/20 09:08:26;;;;;;;38.17;25.20;;;14.60;25.80;;;;;;4994295;28;20421;-77
2021/04/20 09:11:01;;;;;;;43.63;24.00;;;14.50;26.40;;;;;;4998107;28;20459;-76
2021/04/20 09:13:31;;;;;;;31.77;21.90;;;14.70;23.20;;;;;;5001904;28;20401;-77
2021/04/20 09:16:05;;;;;;;34.25;23.63;;;14.80;22.40;;;;;;5000525;28;20382;-75
2021/04/20 09:18:41;;;;;;;35.60;24.13;;;14.60;23.30;;;;;;4999675;28;20775;-75
2021/04/20 09:21:51;;;;;;;30.63;21.85;;;14.60;24.10;;;;;;4983550;28;20401;-75
2021/04/20 09:24:19;;;;;;;35.42;22.30;;;14.60;24.30;;;;;;4978640;28;20466;-75
2021/04/20 09:27:09;;;;;;;41.37;22.43;;;14.80;22.40;;;;;;4977402;28;20440;-76
2021/04/20 09:29:43;;;;;;;30.40;20.75;;;14.90;22.00;;;;;;4991213;28;20402;-73
2021/04/20 09:32:20;;;;;;;32.33;21.08;;;15.30;19.60;;;;;;5005686;28;20394;-75
2021/04/20 09:34:48;;;;;;;30.90;20.30;;;15.10;19.80;;;;;;4977717;28;20789;-74
2021/04/20 09:37:15;;;;;;;32.25;20.30;;;15.10;20.00;;;;;;4978357;28;20467;-73
2021/04/20 09:39:43;;;;;;;34.35;20.52;;;15.10;19.90;;;;;;5007234;28;20693;-74
2021/04/20 09:42:11;;;;;;;31.83;20.63;;;15.10;19.30;;;;;;5000454;28;20397;-74
2021/04/20 09:45:13;;;;;;;30.42;20.45;;;15.30;19.10;;;;;;5003521;28;20411;-74
2021/04/20 09:48:07;;;;;;;33.80;20.97;;;15.40;18.60;;;;;;4998603;28;20393;-74
2021/04/20 09:51:01;;;;;;;29.02;20.10;;;15.70;17.90;;;;;;4992013;28;20493;-72
2021/04/20 09:53:40;;;;;;;29.65;20.45;;;15.80;17.30;;;;;;4994566;28;20890;-73
2021/04/20 09:56:15;;;;;;;29.23;20.55;;;15.90;17.90;;;;;;4994247;28;20398;-73
2021/04/20 09:58:43;;;;;;;26.83;18.98;;;15.90;17.00;;;;;;5020394;22;20435;-70
2021/04/20 10:01:47;;;;;;;28.23;20.80;;;16.00;16.50;;;;;;5013405;28;20377;-70
2021/04/20 10:04:24;;;;;;;31.63;20.58;;;16.40;15.60;;;;;;5012945;28;20480;-69
2021/04/20 10:07:02;;;;;;;28.45;20.38;;;16.50;15.00;;;;;;5012651;28;20857;-69
2021/04/20 10:09:56;;;;;;;28.60;20.30;;;16.60;16.20;;;;;;4993905;28;20386;-70
2021/04/20 10:12:40;;;;;;;26.48;19.13;;;16.50;15.10;;;;;;4993316;28;20394;-69
2021/04/20 10:15:19;;;;;;;28.55;19.20;;;16.50;15.20;;;;;;4993884;28;20412;-69
2021/04/20 10:18:06;;;;;;;29.25;20.27;;;16.70;14.20;;;;;;4992100;28;20398;-69
2021/04/20 10:20:56;;;;;;;31.15;20.70;;;16.70;14.20;;;;;;4992132;28;20398;-70
2021/04/20 10:23:53;;;;;;;31.52;21.38;;;16.70;14.50;;;;;;4993167;28;20457;-69
2021/04/20 10:26:43;;;;;;;30.33;20.05;;;16.50;14.90;;;;;;4992030;28;20532;-70
2021/04/20 10:29:23;;;;;;;25.80;19.10;;;16.30;15.80;;;;;;4993356;28;20387;-70
2021/04/20 10:32:27;;;;;;;29.23;20.05;;;16.40;15.90;;;;;;4990832;28;20850;-70
2021/04/20 10:34:54;;;;;;;26.70;20.10;;;16.60;15.20;;;;;;4982655;28;20418;-70
2021/04/20 10:37:31;;;;;;;28.40;19.10;;;16.70;14.50;;;;;;4993077;28;20755;-70
2021/04/20 10:39:59;;;;;;;26.33;19.10;;;16.90;13.70;;;;;;4992574;28;20497;-70
2021/04/20 10:42:30;;;;;;;28.58;19.73;;;17.40;13.40;;;;;;4992899;28;20461;-74
2021/04/20 10:44:56;;;;;;;27.70;18.60;;;17.70;12.20;;;;;;4992281;28;20417;-71
2021/04/20 10:47:25;;;;;;;26.60;18.23;;;18.20;11.30;;;;;;4992018;28;20394;-72
2021/04/20 10:49:53;;;;;;;24.20;19.08;;;18.40;11.50;;;;;;4991144;28;20508;-71
2021/04/20 10:52:21;;;;;;;23.52;17.88;;;18.50;10.00;;;;;;4992875;28;20405;-71
2021/04/20 10:54:49;;;;;;;26.85;18.75;;;18.60;9.00;;;;;;4992857;28;20433;-71
2021/04/20 10:57:15;;;;;;;22.37;17.20;;;18.80;8.90;;;;;;4990559;28;20447;-73
2021/04/20 10:59:50;;;;;;;27.38;19.95;;;18.90;8.90;;;;;;4990990;28;20994;-71
2021/04/20 11:02:21;;;;;;;26.05;19.65;;;18.90;7.80;;;;;;4992701;28;20398;-71
2021/04/20 11:04:51;;;;;;;25.92;19.42;;;18.50;8.90;;;;;;4992435;28;20919;-71
2021/04/20 11:07:31;;;;;;;23.38;17.42;;;18.40;9.60;;;;;;4992166;28;20402;-73
2021/04/20 11:10:03;;;;;;;26.05;17.95;;;18.50;9.30;;;;;;4991120;28;20541;-70
2021/04/20 11:12:30;;;;;;;24.25;19.00;;;18.70;9.60;;;;;;4992746;28;20386;-71
2021/04/20 11:14:57;;;;;;;24.73;17.15;;;18.70;9.10;;;;;;4991830;28;20460;-70
2021/04/20 11:17:38;;;;;;;22.95;17.83;;;18.80;9.70;;;;;;4992430;28;20856;-70
2021/04/20 11:20:12;;;;;;;26.37;19.30;;;19.20;8.30;;;;;;4992803;28;20405;-73
2021/04/20 11:22:47;;;;;;;27.70;19.30;;;19.50;8.50;;;;;;4991819;28;20828;-69
2021/04/20 11:25:30;;;;;;;22.92;18.23;;;20.00;7.40;;;;;;4985462;28;20442;-69
2021/04/20 11:28:06;;;;;;;24.40;18.95;;;20.20;6.90;;;;;;4991764;28;20768;-69
2021/04/20 11:30:34;;;;;;;33.42;19.48;;;20.20;7.10;;;;;;4991471;28;20452;-69
2021/04/20 11:33:13;;;;;;;25.40;19.43;;;20.60;6.70;;;;;;4990584;28;20465;-69
2021/04/20 11:35:42;;;;;;;26.05;19.98;;;20.90;5.70;;;;;;4991942;28;20383;-69
2021/04/20 11:38:10;;;;;;;25.85;18.95;;;20.80;5.50;;;;;;4991818;28;20417;-70
2021/04/20 11:40:42;;;;;;;22.45;18.92;;;20.90;5.40;;;;;;4991940;28;20875;-69
2021/04/20 11:43:15;;;;;;;25.60;20.48;;;20.90;4.90;;;;;;4991718;28;20395;-70
2021/04/20 11:45:44;;;;;;;23.93;18.43;;;20.90;4.80;;;;;;4992204;28;20393;-70
2021/04/20 11:48:13;;;;;;;22.83;18.10;;;21.10;5.00;;;;;;4993506;28;20386;-70
2021/04/20 11:50:52;;;;;;;22.63;18.60;;;21.10;4.50;;;;;;4994751;28;20387;-69
2021/04/20 11:53:19;;;;;;;24.10;19.20;;;21.20;4.60;;;;;;4999259;28;20401;-71
2021/04/20 11:55:47;;;;;;;21.88;18.02;;;21.00;4.60;;;;;;4997240;28;20454;-71
2021/04/20 11:58:22;;;;;;;30.53;19.80;;;20.90;5.30;;;;;;4992067;28;20406;-71
2021/04/20 12:00:50;;;;;;;32.38;21.92;;;21.00;5.20;;;;;;4991843;28;20383;-71
2021/04/20 12:03:19;;;;;;;26.00;20.13;;;20.00;6.60;;;;;;4991460;28;20449;-71
2021/04/20 12:05:47;;;;;;;31.58;21.35;;;19.50;7.40;;;;;;4991362;28;20445;-72
2021/04/20 12:08:30;;;;;;;28.75;21.40;;;18.80;8.40;;;;;;4991471;28;20457;-71
2021/04/20 12:10:58;;;;;;;30.23;20.15;;;18.50;9.80;;;;;;4991398;28;20422;-72
2021/04/20 12:13:27;;;;;;;29.25;18.92;;;18.10;10.50;;;;;;4991741;28;20386;-71
2021/04/20 12:16:13;;;;;;;30.53;20.20;;;18.00;10.30;;;;;;4991733;28;20954;-71
2021/04/20 12:18:45;;;;;;;30.30;20.73;;;18.00;11.50;;;;;;4990581;28;20406;-71
2021/04/20 12:21:18;;;;;;;27.93;20.30;;;18.00;11.70;;;;;;4991977;28;20390;-70
2021/04/20 12:23:49;;;;;;;29.30;20.20;;;18.30;11.10;;;;;;4986191;28;20819;-71
2021/04/20 12:26:15;;;;;;;29.05;20.25;;;18.70;9.60;;;;;;4991902;28;20469;-70
2021/04/20 12:28:46;;;;;;;26.80;19.70;;;19.20;9.30;;;;;;4992204;28;20457;-71
2021/04/20 12:31:12;;;;;;;26.87;20.40;;;19.30;8.20;;;;;;4992008;28;20401;-70
2021/04/20 12:33:38;;;;;;;25.73;19.50;;;19.00;8.90;;;;;;4991158;28;20390;-70
2021/04/20 12:36:05;;;;;;;25.17;19.08;;;19.00;8.50;;;;;;4991242;28;20879;-70
2021/04/20 12:38:33;;;;;;;24.88;19.20;;;18.90;9.40;;;;;;4990417;28;20398;-71
2021/04/20 12:41:02;;;;;;;28.35;20.35;;;19.10;8.80;;;;;;4990715;28;20390;-69
2021/04/20 12:43:31;;;;;;;26.38;19.73;;;19.30;8.70;;;;;;4990687;28;20430;-71
2021/04/20 12:46:11;;;;;;;26.80;19.87;;;19.50;7.90;;;;;;4994970;28;20393;-71
2021/04/20 12:48:43;;;;;;;25.67;19.58;;;19.50;7.90;;;;;;4994945;28;20392;-71
2021/04/20 12:51:20;;;;;;;29.93;20.27;;;19.70;7.80;;;;;;4994553;28;20906;-69
2021/04/20 12:53:47;;;;;;;25.02;19.05;;;19.90;7.20;;;;;;4995400;28;20394;-71
2021/04/20 12:56:35;;;;;;;24.50;19.25;;;20.20;6.50;;;;;;4994933;28;20467;-71
2021/04/20 12:59:05;;;;;;;26.85;20.08;;;20.40;5.90;;;;;;4995028;28;20519;-72